Time;durP1;ratioP1;P1;durP2;ratioP2;P2;SDS_P1;SDS_P2;PMS_P1;PMS_P2;Temp;Humidity;BMP_temperature;BMP_pressure;BME280_temperature;BME280_humidity;BME280_pressure;Samples;Min_cycle;Max_cycle;Signal;HPM_P1;HPM_P2
2021/12/15 00:08:56;;;;;;;75.8;98;;;;;;;4.2;81.9;99840;;;;
2021/12/15 00:18:56;;;;;;;75.8;98;;;;;;;4.2;81.5;99830;;;;
2021/12/15 00:28:56;;;;;;;97;117.4;;;;;;;4;81.4;99830;;;;
2021/12/15 00:39:56;;;;;;;97;117.4;;;;;;;4;81.4;99840;;;;
2021/12/15 00:49:56;;;;;;;97;117.4;;;;;;;3.9;81.7;99850;;;;
2021/12/15 00:59:56;;;;;;;120.3;150.3;;;;;;;3.9;81.7;99850;;;;
2021/12/15 01:09:58;;;;;;;120.3;150.3;;;;;;;3.9;82;99850;;;;
2021/12/15 01:19:57;;;;;;;120.3;150.3;;;;;;;3.9;82.1;99850;;;;
2021/12/15 01:29:56;;;;;;;117.8;147.6;;;;;;;3.7;83.5;99850;;;;
2021/12/15 01:40:56;;;;;;;117.8;147.6;;;;;;;4;83.2;99850;;;;
2021/12/15 01:50:56;;;;;;;117.8;147.6;;;;;;;4;83.2;99850;;;;
2021/12/15 02:00:56;;;;;;;84.7;107.8;;;;;;;3.9;83.8;99840;;;;
2021/12/15 02:10:56;;;;;;;84.7;107.8;;;;;;;4.1;83.9;99840;;;;
2021/12/15 02:20:56;;;;;;;84.7;107.8;;;;;;;4.2;83.7;99840;;;;
2021/12/15 02:31:03;;;;;;;70.1;96;;;;;;;4.3;83.1;99850;;;;
2021/12/15 02:41:05;;;;;;;70.1;96;;;;;;;4.4;83;99860;;;;
2021/12/15 02:51:56;;;;;;;70.1;96;;;;;;;4.4;82.8;99850;;;;
2021/12/15 03:04:13;;;;;;;75.6;96.3;;;;;;;4.5;82.4;99880;;;;
2021/12/15 03:23:56;;;;;;;75.6;96.3;;;;;;;4.5;82.1;99900;;;;
2021/12/15 03:34:10;;;;;;;79;93.1;;;;;;;4.4;81.7;99890;;;;
2021/12/15 03:43:56;;;;;;;79;93.1;;;;;;;4.4;81.6;99900;;;;
2021/12/15 03:54:56;;;;;;;79;93.1;;;;;;;4.3;82;99900;;;;
2021/12/15 04:04:56;;;;;;;93;122.8;;;;;;;4.3;82.2;99910;;;;
2021/12/15 04:16:03;;;;;;;93;122.8;;;;;;;4.3;82.2;99910;;;;
2021/12/15 04:26:56;;;;;;;88;112.8;;;;;;;4.3;82.2;99910;;;;
2021/12/15 04:37:56;;;;;;;88;112.8;;;;;;;4.4;82.3;99920;;;;
2021/12/15 04:47:57;;;;;;;88;112.8;;;;;;;4.4;82;99940;;;;
2021/12/15 04:58:56;;;;;;;87.2;105.5;;;;;;;4.4;81.8;99940;;;;
2021/12/15 05:09:56;;;;;;;87.2;105.5;;;;;;;4.5;82.1;99950;;;;
2021/12/15 05:20:58;;;;;;;87.2;105.5;;;;;;;4.3;82.8;99950;;;;
2021/12/15 05:30:56;;;;;;;66.4;84.5;;;;;;;4.4;82.9;99950;;;;
2021/12/15 05:41:56;;;;;;;66.4;84.5;;;;;;;4.4;83;99950;;;;
2021/12/15 05:52:56;;;;;;;66.4;84.5;;;;;;;4.5;83;99950;;;;
2021/12/15 06:02:56;;;;;;;61.9;72.9;;;;;;;4.5;83;99960;;;;
2021/12/15 06:13:56;;;;;;;61.9;72.9;;;;;;;4.6;82.5;99970;;;;
2021/12/15 06:23:56;;;;;;;61.9;72.9;;;;;;;4.5;82.6;99980;;;;
2021/12/15 06:33:56;;;;;;;63.5;78.8;;;;;;;4.5;82.7;99980;;;;
2021/12/15 06:44:56;;;;;;;63.5;78.8;;;;;;;4.6;82.8;99980;;;;
2021/12/15 07:04:56;;;;;;;61.5;76.8;;;;;;;4.7;82.4;100010;;;;
2021/12/15 07:14:56;;;;;;;61.5;76.8;;;;;;;4.8;82.5;100010;;;;
2021/12/15 07:25:56;;;;;;;61.5;76.8;;;;;;;5;82.1;100020;;;;
2021/12/15 07:35:56;;;;;;;60.1;78;;;;;;;5.2;81.9;100030;;;;
2021/12/15 07:45:56;;;;;;;60.1;78;;;;;;;5.3;81.1;100040;;;;
2021/12/15 07:56:56;;;;;;;61.8;72.6;;;;;;;5.3;81.5;100060;;;;
2021/12/15 08:07:56;;;;;;;61.8;72.6;;;;;;;5.5;81.2;100080;;;;
2021/12/15 08:17:56;;;;;;;61.8;72.6;;;;;;;5.4;80.9;100080;;;;
2021/12/15 08:27:56;;;;;;;64;78.1;;;;;;;5.7;80.3;100100;;;;
2021/12/15 08:37:56;;;;;;;64;78.1;;;;;;;5.8;80.1;100100;;;;
2021/12/15 08:48:56;;;;;;;64;78.1;;;;;;;5.9;79.9;100100;;;;
2021/12/15 08:58:56;;;;;;;66.3;81.5;;;;;;;6;80.2;100110;;;;
2021/12/15 09:09:56;;;;;;;66.3;81.5;;;;;;;5.9;80.1;100110;;;;
2021/12/15 09:19:56;;;;;;;66.3;81.5;;;;;;;5.8;79.8;100100;;;;
2021/12/15 09:29:56;;;;;;;58.5;73.7;;;;;;;5.7;80.2;100100;;;;
2021/12/15 09:39:56;;;;;;;58.5;73.7;;;;;;;5.5;80.3;100100;;;;
2021/12/15 10:20:56;;;;;;;75.9;94.8;;;;;;;5.9;80.1;100090;;;;
2021/12/15 10:30:56;;;;;;;78.6;92.1;;;;;;;5.9;80;100080;;;;
2021/12/15 10:40:56;;;;;;;78.6;92.1;;;;;;;6.1;79.6;100090;;;;
2021/12/15 10:50:56;;;;;;;78.6;92.1;;;;;;;6.1;79.4;100080;;;;
2021/12/15 11:01:56;;;;;;;71.9;90;;;;;;;6;80.5;100050;;;;
2021/12/15 11:11:56;;;;;;;71.9;90;;;;;;;5.9;81.1;100050;;;;
2021/12/15 11:21:56;;;;;;;71.9;90;;;;;;;5.9;81.7;100050;;;;
2021/12/15 11:32:56;;;;;;;106;137.9;;;;;;;6;81.5;100040;;;;
2021/12/15 11:42:56;;;;;;;106;137.9;;;;;;;6.1;81.8;100020;;;;
2021/12/15 11:53:56;;;;;;;106;137.9;;;;;;;6.1;82;100000;;;;
2021/12/15 12:04:56;;;;;;;50.6;61.9;;;;;;;6.2;81.6;100010;;;;
2021/12/15 12:15:56;;;;;;;50.6;61.9;;;;;;;6.3;81.1;100020;;;;
2021/12/15 12:25:56;;;;;;;50.7;63.4;;;;;;;6.3;81.2;100020;;;;
2021/12/15 12:36:56;;;;;;;50.7;63.4;;;;;;;6.3;80.9;100030;;;;
2021/12/15 12:47:00;;;;;;;50.7;63.4;;;;;;;6.4;81;100020;;;;
2021/12/15 12:59:21;;;;;;;51;63.7;;;;;;;6.2;81.1;100010;;;;
2021/12/15 13:07:56;;;;;;;51;63.7;;;;;;;6.4;80.9;100000;;;;
2021/12/15 13:17:58;;;;;;;51;63.7;;;;;;;6.3;80.8;100000;;;;
2021/12/15 13:29:01;;;;;;;49.6;56.2;;;;;;;6.3;80.9;100000;;;;
2021/12/15 13:37:57;;;;;;;49.6;56.2;;;;;;;6.2;81;100010;;;;
2021/12/15 13:47:56;;;;;;;49.6;56.2;;;;;;;6.3;80.8;100020;;;;
2021/12/15 13:57:56;;;;;;;32.1;37.4;;;;;;;6.2;81.2;100050;;;;
2021/12/15 14:07:56;;;;;;;32.1;37.4;;;;;;;6.2;81.5;100050;;;;
2021/12/15 14:18:56;;;;;;;32.1;37.4;;;;;;;6.1;81.6;100060;;;;
2021/12/15 14:28:56;;;;;;;30.5;34.9;;;;;;;6.1;81.8;100050;;;;
2021/12/15 14:38:56;;;;;;;30.5;34.9;;;;;;;6.1;81.9;100070;;;;
2021/12/15 14:49:56;;;;;;;30.5;34.9;;;;;;;6.1;81.7;100070;;;;
2021/12/15 15:00:56;;;;;;;34.3;41;;;;;;;6.2;81.5;100070;;;;
2021/12/15 15:10:56;;;;;;;34.3;41;;;;;;;6.1;81.6;100080;;;;
2021/12/15 15:20:56;;;;;;;34.3;41;;;;;;;6.1;81.5;100090;;;;
2021/12/15 15:30:56;;;;;;;44.5;51.5;;;;;;;6;81.7;100100;;;;
2021/12/15 15:41:56;;;;;;;44.5;51.5;;;;;;;5.9;82.1;100100;;;;
2021/12/15 15:52:56;;;;;;;44.5;51.5;;;;;;;6;82.3;100090;;;;
2021/12/15 16:02:56;;;;;;;50.9;61.2;;;;;;;6;82.2;100100;;;;
2021/12/15 16:12:57;;;;;;;50.9;61.2;;;;;;;6;82.2;100090;;;;
2021/12/15 16:23:56;;;;;;;50.9;61.2;;;;;;;6.1;82.2;100100;;;;
2021/12/15 16:33:56;;;;;;;47;56.3;;;;;;;6.1;82.2;100100;;;;
2021/12/15 16:43:57;;;;;;;47;56.3;;;;;;;6.1;82;100100;;;;
2021/12/15 16:53:56;;;;;;;47;56.3;;;;;;;6.1;82.4;100090;;;;
2021/12/15 17:04:56;;;;;;;41.6;48.3;;;;;;;6.2;82;100090;;;;
2021/12/15 17:15:58;;;;;;;41.6;48.3;;;;;;;6.2;81.8;100090;;;;
2021/12/15 17:25:56;;;;;;;44.2;55.2;;;;;;;6.3;81.8;100080;;;;
2021/12/15 17:35:56;;;;;;;44.2;55.2;;;;;;;6.3;81.7;100080;;;;
2021/12/15 17:45:56;;;;;;;44.2;55.2;;;;;;;6.3;81.6;100080;;;;
2021/12/15 17:56:56;;;;;;;44.1;52.4;;;;;;;6.3;81.8;100080;;;;
2021/12/15 18:06:56;;;;;;;44.1;52.4;;;;;;;6.1;82.5;100080;;;;
2021/12/15 18:17:56;;;;;;;44.1;52.4;;;;;;;6.2;82.5;100080;;;;
2021/12/15 18:27:59;;;;;;;42.1;47.3;;;;;;;6.3;82.9;100070;;;;
2021/12/15 18:38:56;;;;;;;42.1;47.3;;;;;;;6.4;82.8;100080;;;;
2021/12/15 18:48:58;;;;;;;42.1;47.3;;;;;;;6.6;82.3;100070;;;;
2021/12/15 18:58:56;;;;;;;27.2;31.1;;;;;;;6.5;82.2;100060;;;;
2021/12/15 19:08:56;;;;;;;27.2;31.1;;;;;;;6.4;82.5;100070;;;;
2021/12/15 19:18:56;;;;;;;27.2;31.1;;;;;;;6.6;82;100090;;;;
2021/12/15 19:29:56;;;;;;;34.2;39.4;;;;;;;6.6;81.8;100090;;;;
2021/12/15 19:39:56;;;;;;;34.2;39.4;;;;;;;6.6;81.9;100090;;;;
2021/12/15 19:49:56;;;;;;;34.2;39.4;;;;;;;6.6;81.8;100100;;;;
2021/12/15 20:00:56;;;;;;;41.1;51.2;;;;;;;6.6;82;100100;;;;
2021/12/15 20:10:56;;;;;;;41.1;51.2;;;;;;;6.6;82;100120;;;;
2021/12/15 20:21:56;;;;;;;41.1;51.2;;;;;;;6.5;82.2;100120;;;;
2021/12/15 20:31:56;;;;;;;37.8;43.8;;;;;;;6.4;82.1;100110;;;;
2021/12/15 20:41:56;;;;;;;37.8;43.8;;;;;;;6.5;81.8;100090;;;;
2021/12/15 20:52:56;;;;;;;37.8;43.8;;;;;;;6.4;82.1;100110;;;;
2021/12/15 21:02:56;;;;;;;36.2;43.8;;;;;;;6.5;81.8;100100;;;;
2021/12/15 21:12:58;;;;;;;36.2;43.8;;;;;;;6.6;81.5;100090;;;;
2021/12/15 21:22:56;;;;;;;36.2;43.8;;;;;;;6.6;81.5;100080;;;;
2021/12/15 21:33:56;;;;;;;27.3;31.3;;;;;;;6.7;81.1;100100;;;;
2021/12/15 21:43:56;;;;;;;27.3;31.3;;;;;;;6.7;81.1;100120;;;;
2021/12/15 21:54:57;;;;;;;36.8;43.1;;;;;;;6.8;81;100120;;;;
2021/12/15 22:05:56;;;;;;;36.8;43.1;;;;;;;6.5;81.3;100110;;;;
2021/12/15 22:16:57;;;;;;;36.8;43.1;;;;;;;6.5;81.6;100120;;;;
2021/12/15 22:26:56;;;;;;;42.5;51.1;;;;;;;6.5;81.5;100110;;;;
2021/12/15 22:36:56;;;;;;;42.5;51.1;;;;;;;6.6;81.2;100100;;;;
2021/12/15 22:46:56;;;;;;;42.5;51.1;;;;;;;6.6;81.1;100090;;;;
2021/12/15 22:56:56;;;;;;;44.7;53.3;;;;;;;6.5;81.2;100080;;;;
2021/12/15 23:06:56;;;;;;;44.7;53.3;;;;;;;6.5;81.4;100080;;;;
2021/12/15 23:16:56;;;;;;;44.7;53.3;;;;;;;6.5;81.5;100080;;;;
2021/12/15 23:26:56;;;;;;;40.6;46.8;;;;;;;6.6;81.2;100090;;;;
2021/12/15 23:36:56;;;;;;;40.6;46.8;;;;;;;6.6;80.9;100100;;;;
